createdAt,value
2022-09-17T00:01:25.937Z,77.16
2022-09-17T00:03:56.836Z,76.62
2022-09-17T00:06:26.755Z,75.77
2022-09-17T00:08:55.301Z,75.67
2022-09-17T00:11:29.065Z,75.43
2022-09-17T00:13:58.925Z,75.16
2022-09-17T00:16:35.531Z,74.79
2022-09-17T00:19:04.450Z,75.18
2022-09-17T00:21:32.409Z,75.02
2022-09-17T00:24:03.060Z,74.79
2022-09-17T00:26:32.178Z,74.96
2022-09-17T00:29:00.827Z,74.57
2022-09-17T00:31:30.207Z,74.67
2022-09-17T00:33:59.274Z,74.49
2022-09-17T00:36:27.768Z,74.36
2022-09-17T00:38:57.723Z,74.36
2022-09-17T00:41:29.018Z,74.29
2022-09-17T00:43:59.320Z,74.31
2022-09-17T00:46:39.612Z,74.51
2022-09-17T00:49:13.659Z,74.64
2022-09-17T00:51:50.769Z,74.64
2022-09-17T00:54:18.955Z,74.66
2022-09-17T00:56:46.664Z,74.79
2022-09-17T00:59:16.444Z,74.83
2022-09-17T01:01:44.161Z,73.77
2022-09-17T01:04:18.586Z,73.96
2022-09-17T01:07:21.746Z,73.69
2022-09-17T01:10:10.282Z,73.42
2022-09-17T01:12:50.948Z,73.59
2022-09-17T01:15:42.827Z,72.48
2022-09-17T01:18:16.406Z,72.47
2022-09-17T01:21:22.530Z,72.71
2022-09-17T01:24:18.610Z,72.82
2022-09-17T01:26:48.907Z,72.31
2022-09-17T01:29:36.464Z,72.64
2022-09-17T01:32:11.129Z,72.19
2022-09-17T01:35:07.512Z,71.71
2022-09-17T01:37:42.671Z,72.11
2022-09-17T01:40:15.675Z,71.69
2022-09-17T01:43:09.601Z,71.91
2022-09-17T01:45:53.147Z,72.08
2022-09-17T01:48:24.663Z,72.26
2022-09-17T01:51:12.702Z,72.25
2022-09-17T01:53:58.939Z,71.97
2022-09-17T01:56:34.883Z,72.36
2022-09-17T01:59:29.851Z,72.48
2022-09-17T02:02:08.752Z,72.07
2022-09-17T02:04:47.347Z,71.64
2022-09-17T02:07:21.945Z,71.61
2022-09-17T02:10:02.770Z,71.80
2022-09-17T02:12:38.063Z,71.37
2022-09-17T02:15:12.481Z,71.43
2022-09-17T02:18:04.618Z,70.92
2022-09-17T02:20:41.695Z,71.29
2022-09-17T02:23:15.522Z,71.15
2022-09-17T02:25:58.602Z,71.49
2022-09-17T02:28:44.985Z,71.45
2022-09-17T02:31:12.905Z,70.31
2022-09-17T02:33:43.589Z,71.17
2022-09-17T02:36:11.254Z,70.86
2022-09-17T02:38:42.334Z,70.84
2022-09-17T02:41:17.246Z,70.58
2022-09-17T02:44:08.398Z,69.86
2022-09-17T02:46:58.017Z,68.60
2022-09-17T02:49:51.261Z,69.81
2022-09-17T02:52:47.218Z,68.95
2022-09-17T02:55:24.810Z,69.76
2022-09-17T02:58:13.717Z,69.82
2022-09-17T03:00:42.085Z,69.48
2022-09-17T03:03:37.254Z,69.92
2022-09-17T03:06:06.507Z,69.75
2022-09-17T03:08:38.333Z,69.77
2022-09-17T03:11:07.073Z,70.09
2022-09-17T03:13:37.146Z,70.13
2022-09-17T03:16:05.983Z,70.28
2022-09-17T03:18:34.268Z,70.40
2022-09-17T03:21:02.159Z,70.74
2022-09-17T03:23:30.142Z,70.74
2022-09-17T03:25:57.919Z,70.93
2022-09-17T03:28:27.582Z,71.00
2022-09-17T03:30:55.634Z,70.99
2022-09-17T03:33:23.672Z,71.00
2022-09-17T03:35:51.561Z,70.93
2022-09-17T03:38:19.332Z,70.91
2022-09-17T03:41:01.096Z,70.61
2022-09-17T03:43:29.002Z,70.93
2022-09-17T03:45:57.026Z,71.04
2022-09-17T03:48:24.681Z,70.97
2022-09-17T03:50:52.323Z,70.69
2022-09-17T03:53:20.054Z,70.79
2022-09-17T03:55:52.276Z,70.99
2022-09-17T03:58:20.233Z,71.01
2022-09-17T04:00:54.375Z,70.78
2022-09-17T04:03:22.811Z,71.24
2022-09-17T04:05:50.881Z,71.49
2022-09-17T04:08:19.235Z,71.43
2022-09-17T04:10:48.500Z,71.65
2022-09-17T04:13:18.126Z,71.83
2022-09-17T04:15:47.292Z,71.85
2022-09-17T04:18:15.480Z,71.97
2022-09-17T04:20:44.193Z,72.34
2022-09-17T04:23:13.395Z,72.51
2022-09-17T04:25:41.139Z,72.46
2022-09-17T04:28:08.955Z,72.40
2022-09-17T04:30:36.997Z,72.31
2022-09-17T04:33:05.417Z,72.28
2022-09-17T04:35:33.183Z,72.34
2022-09-17T04:38:00.859Z,72.49
2022-09-17T04:40:29.274Z,72.48
2022-09-17T04:42:58.262Z,72.29
2022-09-17T04:45:26.512Z,71.78
2022-09-17T04:47:54.134Z,71.45
2022-09-17T04:50:22.818Z,71.21
2022-09-17T04:52:50.455Z,70.85
2022-09-17T04:55:18.561Z,71.12
2022-09-17T04:57:54.144Z,71.04
2022-09-17T05:00:23.295Z,71.09
2022-09-17T05:02:53.362Z,71.13
2022-09-17T05:05:21.719Z,71.14
2022-09-17T05:07:49.873Z,71.11
2022-09-17T05:10:18.876Z,71.24
2022-09-17T05:12:54.476Z,71.42
2022-09-17T05:15:23.173Z,71.61
2022-09-17T05:17:51.297Z,72.74
2022-09-17T05:20:19.352Z,72.98
2022-09-17T05:22:49.145Z,73.03
2022-09-17T05:25:18.384Z,73.17
2022-09-17T05:27:46.608Z,73.40
2022-09-17T05:30:14.702Z,73.63
2022-09-17T05:32:42.374Z,74.49
2022-09-17T05:35:11.717Z,74.53
2022-09-17T05:37:39.510Z,74.36
2022-09-17T05:40:10.348Z,74.51
2022-09-17T05:42:38.187Z,74.55
2022-09-17T05:45:06.702Z,74.33
2022-09-17T05:47:36.351Z,74.59
2022-09-17T05:50:04.738Z,74.59
2022-09-17T05:52:32.386Z,74.60
2022-09-17T05:55:00.164Z,74.41
2022-09-17T05:57:31.532Z,74.31
2022-09-17T05:59:59.165Z,73.55
2022-09-17T06:02:26.796Z,72.53
2022-09-17T06:04:54.403Z,72.68
2022-09-17T06:07:22.038Z,72.77
2022-09-17T06:09:49.838Z,72.74
2022-09-17T06:12:17.470Z,72.81
2022-09-17T06:14:45.180Z,72.99
2022-09-17T06:17:12.777Z,72.63
2022-09-17T06:19:40.450Z,72.77
2022-09-17T06:22:08.056Z,72.83
2022-09-17T06:24:35.684Z,73.05
2022-09-17T06:27:03.325Z,73.12
2022-09-17T06:29:30.953Z,73.41
2022-09-17T06:31:58.652Z,73.41
2022-09-17T06:34:26.454Z,73.67
2022-09-17T06:36:54.182Z,73.98
2022-09-17T06:39:22.049Z,74.78
2022-09-17T06:41:49.641Z,75.58
2022-09-17T06:44:17.755Z,76.61
2022-09-17T06:46:45.495Z,76.79
2022-09-17T06:49:13.340Z,76.82
2022-09-17T06:51:41.386Z,77.35
2022-09-17T06:54:09.869Z,78.14
2022-09-17T06:56:38.170Z,78.08
2022-09-17T06:59:05.780Z,77.87
2022-09-17T07:01:34.221Z,78.51
2022-09-17T07:04:01.899Z,77.87
2022-09-17T07:06:29.540Z,78.20
2022-09-17T07:08:57.260Z,77.95
2022-09-17T07:11:25.062Z,78.84
2022-09-17T07:13:52.807Z,78.48
2022-09-17T07:16:20.861Z,78.95
2022-09-17T07:18:48.637Z,78.66
2022-09-17T07:21:16.542Z,78.60
2022-09-17T07:23:44.173Z,78.10
2022-09-17T07:26:17.129Z,78.40
2022-09-17T07:28:45.128Z,78.32
2022-09-17T07:31:16.423Z,77.67
2022-09-17T07:33:45.503Z,77.81
2022-09-17T07:36:15.939Z,78.15
2022-09-17T07:38:43.943Z,77.82
2022-09-17T07:41:16.634Z,77.90
2022-09-17T07:43:45.267Z,77.70
2022-09-17T07:46:19.421Z,75.33
2022-09-17T07:48:48.889Z,74.85
2022-09-17T07:51:24.538Z,73.69
2022-09-17T07:53:53.722Z,72.60
2022-09-17T07:56:21.848Z,73.69
2022-09-17T07:58:49.900Z,73.88
2022-09-17T08:01:19.306Z,73.04
2022-09-17T08:03:54.941Z,71.58
2022-09-17T08:06:29.364Z,71.66
2022-09-17T08:08:58.450Z,72.62
2022-09-17T08:14:17.554Z,73.73
2022-09-17T08:16:47.663Z,71.16
2022-09-17T08:19:15.362Z,70.88
2022-09-17T08:21:43.004Z,70.47
2022-09-17T08:24:10.815Z,70.12
2022-09-17T08:26:39.530Z,69.99
2022-09-17T08:29:08.414Z,68.12
2022-09-17T08:31:36.195Z,68.03
2022-09-17T08:34:08.657Z,68.69
2022-09-17T08:36:36.363Z,68.32
2022-09-17T08:39:04.290Z,68.53
2022-09-17T08:41:41.104Z,67.85
2022-09-17T08:44:28.409Z,66.42
2022-09-17T08:47:39.667Z,66.64
2022-09-17T08:50:35.117Z,67.66
2022-09-17T08:53:14.842Z,67.35
2022-09-17T08:55:42.429Z,67.29
2022-09-17T08:58:32.184Z,67.72
2022-09-17T09:01:11.442Z,67.42
2022-09-17T09:04:05.201Z,66.85
2022-09-17T09:06:37.752Z,66.60
2022-09-17T09:09:13.122Z,63.54
2022-09-17T09:11:43.821Z,64.48
2022-09-17T09:14:18.874Z,64.78
2022-09-17T09:16:47.722Z,63.93
2022-09-17T09:19:23.534Z,63.78
2022-09-17T09:21:54.134Z,63.06
2022-09-17T09:24:26.343Z,63.34
2022-09-17T09:27:18.378Z,62.22
2022-09-17T09:30:06.449Z,62.66
2022-09-17T09:32:34.014Z,61.89
2022-09-17T09:35:13.363Z,62.96
2022-09-17T09:37:45.789Z,62.85
2022-09-17T09:40:37.995Z,62.22
2022-09-17T09:43:17.836Z,62.13
2022-09-17T09:46:04.334Z,63.00
2022-09-17T09:48:48.165Z,62.85
2022-09-17T09:51:21.428Z,63.49
2022-09-17T09:54:16.537Z,63.08
2022-09-17T09:57:07.400Z,63.19
2022-09-17T09:59:37.279Z,62.24
2022-09-17T10:02:06.251Z,62.17
2022-09-17T10:04:34.272Z,61.53
2022-09-17T10:07:22.199Z,61.95
2022-09-17T10:09:49.815Z,62.82
2022-09-17T10:12:19.015Z,63.10
2022-09-17T10:14:47.841Z,62.91
2022-09-17T10:17:22.833Z,63.03
2022-09-17T10:20:13.150Z,61.90
2022-09-17T10:22:46.144Z,60.44
2022-09-17T10:25:28.658Z,60.06
2022-09-17T10:27:58.693Z,60.27
2022-09-17T10:30:27.135Z,60.45
2022-09-17T10:33:19.187Z,61.66
2022-09-17T10:36:07.313Z,62.73
2022-09-17T10:38:38.128Z,62.97
2022-09-17T10:41:14.398Z,62.90
2022-09-17T10:43:42.900Z,64.19
2022-09-17T10:46:28.424Z,64.22
2022-09-17T10:49:12.384Z,64.49
2022-09-17T10:51:40.347Z,64.23
2022-09-17T10:54:13.992Z,63.99
2022-09-17T10:56:47.695Z,63.28
2022-09-17T10:59:30.378Z,63.43
2022-09-17T11:02:35.087Z,63.77
2022-09-17T11:05:05.371Z,63.77
2022-09-17T11:08:06.319Z,63.43
2022-09-17T11:10:46.591Z,63.13
2022-09-17T11:13:50.287Z,63.77
2022-09-17T11:16:42.800Z,64.86
2022-09-17T11:19:35.434Z,64.40
2022-09-17T11:22:17.107Z,66.91
2022-09-17T11:25:11.089Z,67.65
2022-09-17T11:27:48.918Z,71.69
2022-09-17T11:30:23.175Z,78.63
2022-09-17T11:33:21.653Z,78.92
2022-09-17T11:35:53.694Z,84.75
2022-09-17T11:38:40.747Z,85.02
2022-09-17T11:41:25.125Z,85.54
2022-09-17T11:44:20.263Z,88.07
2022-09-17T11:46:54.343Z,87.30
2022-09-17T11:49:40.574Z,88.19
2022-09-17T11:52:15.633Z,90.81
2022-09-17T11:54:58.826Z,89.69
2022-09-17T11:57:34.814Z,90.75
2022-09-17T12:00:14.923Z,92.21
2022-09-17T12:03:37.897Z,90.50
2022-09-17T12:06:19.327Z,92.57
2022-09-17T12:09:09.785Z,91.06
2022-09-17T12:11:59.910Z,91.30
2022-09-17T12:14:43.117Z,89.12
2022-09-17T12:17:17.983Z,88.23
2022-09-17T12:19:51.045Z,88.14
2022-09-17T12:22:31.317Z,88.88
2022-09-17T12:24:59.258Z,88.50
2022-09-17T12:27:54.568Z,87.86
2022-09-17T12:30:26.951Z,87.57
2022-09-17T12:33:34.230Z,86.92
2022-09-17T12:36:34.165Z,87.54
2022-09-17T12:39:41.112Z,85.20
2022-09-17T12:42:26.516Z,83.60
2022-09-17T12:45:23.255Z,83.29
2022-09-17T12:48:08.932Z,81.31
2022-09-17T12:50:55.612Z,78.87
2022-09-17T12:53:44.893Z,79.70
2022-09-17T12:56:33.962Z,79.81
2022-09-17T12:59:10.391Z,80.80
2022-09-17T13:02:03.362Z,79.91
2022-09-17T13:05:00.955Z,79.33
2022-09-17T13:07:35.216Z,78.91
2022-09-17T13:10:23.102Z,78.20
2022-09-17T13:12:57.355Z,77.66
2022-09-17T13:15:34.007Z,75.60
2022-09-17T13:18:23.607Z,76.01
2022-09-17T13:21:07.870Z,74.23
2022-09-17T13:23:44.826Z,75.25
2022-09-17T13:26:20.206Z,76.70
2022-09-17T13:28:51.072Z,76.93
2022-09-17T13:31:45.603Z,78.12
2022-09-17T13:34:19.363Z,78.15
2022-09-17T13:36:52.250Z,78.28
2022-09-17T13:39:39.680Z,76.69
2022-09-17T13:42:10.679Z,76.04
2022-09-17T13:44:43.756Z,76.45
2022-09-17T13:47:17.066Z,76.40
2022-09-17T13:49:50.560Z,78.86
2022-09-17T13:52:35.005Z,78.01
2022-09-17T13:55:04.127Z,82.10
2022-09-17T13:57:35.217Z,82.90
2022-09-17T14:00:03.253Z,83.28
2022-09-17T14:02:33.800Z,84.53
2022-09-17T14:05:31.032Z,83.31
2022-09-17T14:08:14.083Z,85.28
2022-09-17T14:10:44.059Z,85.52
2022-09-17T14:13:41.594Z,85.38
2022-09-17T14:16:27.556Z,85.91
2022-09-17T14:19:00.147Z,86.12
2022-09-17T14:21:34.018Z,85.82
2022-09-17T14:24:04.883Z,86.43
2022-09-17T14:26:44.346Z,86.47
2022-09-17T14:29:42.144Z,84.85
2022-09-17T14:32:22.513Z,84.82
2022-09-17T14:34:51.146Z,82.42
2022-09-17T14:37:22.627Z,81.34
2022-09-17T14:39:52.844Z,81.36
2022-09-17T14:42:35.324Z,81.79
2022-09-17T14:45:25.794Z,80.68
2022-09-17T14:48:29.741Z,80.10
2022-09-17T14:51:32.772Z,80.72
2022-09-17T14:54:06.794Z,81.60
2022-09-17T14:56:47.571Z,80.89
2022-09-17T14:59:39.558Z,80.87
2022-09-17T15:02:45.959Z,78.18
2022-09-17T15:05:22.090Z,77.08
2022-09-17T15:07:49.896Z,77.66
2022-09-17T15:10:21.122Z,77.60
2022-09-17T15:12:50.698Z,77.70
2022-09-17T15:15:23.139Z,76.40
2022-09-17T15:17:52.618Z,74.76
2022-09-17T15:20:32.402Z,74.66
2022-09-17T15:23:21.454Z,74.24
2022-09-17T15:25:52.771Z,73.55
2022-09-17T15:28:38.981Z,73.84
2022-09-17T15:31:08.246Z,73.63
2022-09-17T15:33:36.394Z,73.62
2022-09-17T15:36:21.189Z,72.51
2022-09-17T15:38:49.024Z,71.69
2022-09-17T15:41:20.904Z,70.88
2022-09-17T15:43:50.328Z,68.34
2022-09-17T15:46:28.023Z,67.61
2022-09-17T15:48:57.540Z,67.49
2022-09-17T15:51:37.910Z,67.50
2022-09-17T15:54:10.204Z,65.37
2022-09-17T15:56:42.397Z,66.45
2022-09-17T15:59:29.680Z,67.32
2022-09-17T16:01:59.828Z,67.55
2022-09-17T16:04:30.611Z,67.97
2022-09-17T16:07:17.874Z,68.36
2022-09-17T16:09:52.948Z,68.00
2022-09-17T16:12:29.843Z,67.68
2022-09-17T16:15:04.371Z,66.21
2022-09-17T16:17:39.492Z,66.32
2022-09-17T16:20:17.084Z,65.40
2022-09-17T16:22:45.928Z,66.09
2022-09-17T16:25:13.543Z,66.64
2022-09-17T16:27:48.888Z,65.76
2022-09-17T16:30:19.440Z,64.95
2022-09-17T16:32:47.635Z,65.50
2022-09-17T16:35:17.839Z,65.97
2022-09-17T16:37:48.927Z,65.15
2022-09-17T16:40:17.200Z,65.68
2022-09-17T16:42:45.185Z,66.40
2022-09-17T16:45:13.482Z,66.44
2022-09-17T16:47:43.236Z,67.04
2022-09-17T16:50:16.190Z,67.45
2022-09-17T16:52:44.910Z,67.67
2022-09-17T16:55:16.046Z,67.95
2022-09-17T16:57:44.235Z,66.64
2022-09-17T17:00:15.152Z,67.08
2022-09-17T17:02:43.523Z,67.14
2022-09-17T17:05:14.482Z,66.88
2022-09-17T17:07:42.169Z,66.17
2022-09-17T17:10:10.297Z,66.62
2022-09-17T17:12:38.628Z,66.89
2022-09-17T17:15:07.582Z,67.54
2022-09-17T17:17:36.789Z,67.84
2022-09-17T17:20:11.226Z,68.72
2022-09-17T17:22:41.302Z,68.83
2022-09-17T17:25:09.424Z,69.13
2022-09-17T17:27:37.787Z,69.54
2022-09-17T17:30:08.099Z,69.69
2022-09-17T17:32:37.413Z,69.97
2022-09-17T17:35:05.767Z,69.97
2022-09-17T17:37:33.368Z,69.77
2022-09-17T17:40:01.447Z,69.65
2022-09-17T17:42:29.187Z,70.09
2022-09-17T17:44:56.873Z,70.15
2022-09-17T17:47:24.447Z,70.19
2022-09-17T17:49:52.142Z,70.14
2022-09-17T17:52:19.790Z,70.28
2022-09-17T17:54:47.422Z,70.76
2022-09-17T17:57:15.043Z,70.79
2022-09-17T17:59:42.897Z,70.83
2022-09-17T18:02:12.053Z,70.98
2022-09-17T18:04:39.844Z,71.09
2022-09-17T18:07:08.785Z,71.46
2022-09-17T18:09:36.560Z,71.43
2022-09-17T18:12:04.320Z,71.48
2022-09-17T18:14:31.966Z,72.35
2022-09-17T18:16:59.766Z,72.00
2022-09-17T18:19:27.356Z,72.14
2022-09-17T18:21:55.950Z,72.13
2022-09-17T18:24:23.701Z,72.50
2022-09-17T18:26:51.359Z,71.94
2022-09-17T18:29:19.064Z,71.37
2022-09-17T18:31:46.990Z,71.26
2022-09-17T18:34:16.746Z,70.84
2022-09-17T18:36:51.050Z,71.43
2022-09-17T18:42:07.314Z,72.08
2022-09-17T18:44:34.973Z,71.82
2022-09-17T18:47:02.710Z,72.13
2022-09-17T18:49:30.375Z,71.30
2022-09-17T18:51:58.013Z,71.39
2022-09-17T18:54:25.810Z,71.57
2022-09-17T18:56:53.444Z,72.14
2022-09-17T18:59:21.089Z,72.51
2022-09-17T19:01:49.482Z,73.07
2022-09-17T19:04:17.105Z,73.33
2022-09-17T19:06:44.766Z,73.78
2022-09-17T19:09:12.807Z,74.15
2022-09-17T19:11:40.465Z,73.78
2022-09-17T19:14:10.531Z,73.40
2022-09-17T19:16:38.273Z,74.87
2022-09-17T19:19:05.920Z,75.13
2022-09-17T19:21:33.545Z,76.17
2022-09-17T19:24:01.198Z,76.27
2022-09-17T19:26:28.931Z,77.11
2022-09-17T19:29:04.058Z,77.09
2022-09-17T19:31:31.837Z,76.76
2022-09-17T19:34:02.696Z,77.02
2022-09-17T19:36:30.676Z,77.02
2022-09-17T19:39:01.084Z,77.02
2022-09-17T19:41:28.793Z,76.99
2022-09-17T19:43:58.006Z,77.04
2022-09-17T19:46:27.464Z,76.99
2022-09-17T19:48:56.997Z,76.40
2022-09-17T19:51:26.716Z,76.29
2022-09-17T19:53:54.828Z,76.00
2022-09-17T19:56:26.753Z,76.04
2022-09-17T19:58:54.621Z,75.70
2022-09-17T20:01:22.315Z,75.85
2022-09-17T20:03:50.076Z,75.92
2022-09-17T20:06:20.622Z,75.99
2022-09-17T20:08:50.284Z,75.79
2022-09-17T20:11:19.609Z,75.94
2022-09-17T20:13:47.420Z,75.93
2022-09-17T20:16:20.822Z,75.98
2022-09-17T20:18:50.540Z,76.13
2022-09-17T20:21:21.005Z,76.55
2022-09-17T20:23:49.148Z,76.30
2022-09-17T20:26:17.897Z,76.40
2022-09-17T20:28:46.044Z,76.64
2022-09-17T20:31:15.392Z,77.23
2022-09-17T20:33:43.520Z,77.16
2022-09-17T20:36:16.866Z,77.25
2022-09-17T20:39:10.656Z,77.16
2022-09-17T20:41:33.384Z,77.20
2022-09-17T20:44:01.097Z,77.76
2022-09-17T20:46:29.867Z,77.31
2022-09-17T20:48:58.889Z,77.47
2022-09-17T20:51:29.412Z,77.61
2022-09-17T20:53:58.234Z,77.63
2022-09-17T20:56:28.572Z,77.61
2022-09-17T20:59:03.749Z,77.62
2022-09-17T21:01:33.885Z,77.73
2022-09-17T21:04:02.879Z,77.74
2022-09-17T21:06:33.368Z,77.74
2022-09-17T21:09:01.823Z,78.76
2022-09-17T21:11:32.281Z,78.21
2022-09-17T21:14:02.005Z,78.42
2022-09-17T21:16:30.439Z,78.58
2022-09-17T21:19:00.452Z,78.50
2022-09-17T21:21:28.808Z,78.75
2022-09-17T21:24:01.986Z,78.95
2022-09-17T21:26:30.112Z,78.81
2022-09-17T21:28:58.680Z,79.18
2022-09-17T21:31:32.433Z,79.15
2022-09-17T21:34:07.491Z,78.82
2022-09-17T21:36:38.077Z,78.66
2022-09-17T21:39:13.973Z,78.46
2022-09-17T21:41:42.927Z,78.01
2022-09-17T21:44:12.691Z,78.17
2022-09-17T21:46:41.970Z,78.20
2022-09-17T21:49:10.264Z,77.71
2022-09-17T21:51:40.553Z,77.71
2022-09-17T21:54:17.021Z,77.55
2022-09-17T21:56:45.696Z,77.62
2022-09-17T21:59:15.361Z,77.69
2022-09-17T22:01:47.610Z,77.95
2022-09-17T22:04:21.331Z,78.31
2022-09-17T22:06:50.730Z,78.69
2022-09-17T22:09:24.863Z,78.38
2022-09-17T22:11:54.386Z,78.35
2022-09-17T22:14:24.611Z,78.31
2022-09-17T22:16:55.248Z,78.31
2022-09-17T22:19:24.498Z,78.68
2022-09-17T22:21:54.884Z,78.86
2022-09-17T22:24:23.469Z,78.84
2022-09-17T22:26:57.229Z,78.89
2022-09-17T22:29:26.684Z,78.99
2022-09-17T22:31:54.380Z,79.46
2022-09-17T22:34:23.764Z,79.60
2022-09-17T22:36:51.836Z,79.64
2022-09-17T22:39:22.536Z,79.92
2022-09-17T22:41:50.218Z,80.27
2022-09-17T22:44:20.175Z,80.20
2022-09-17T22:46:50.718Z,80.50
2022-09-17T22:49:19.090Z,80.39
2022-09-17T22:51:48.223Z,80.51
2022-09-17T22:54:18.328Z,80.58
2022-09-17T22:56:47.637Z,80.78
2022-09-17T22:59:16.199Z,80.55
2022-09-17T23:01:44.132Z,80.99
2022-09-17T23:04:11.847Z,81.19
2022-09-17T23:06:42.984Z,82.03
2022-09-17T23:09:10.662Z,81.75
2022-09-17T23:11:40.289Z,81.65
2022-09-17T23:14:12.215Z,81.55
2022-09-17T23:16:45.216Z,81.63
2022-09-17T23:19:13.901Z,81.52
2022-09-17T23:21:41.606Z,81.42
2022-09-17T23:24:11.074Z,81.39
2022-09-17T23:26:38.743Z,81.42
2022-09-17T23:29:06.432Z,81.27
2022-09-17T23:31:36.012Z,81.11
2022-09-17T23:34:05.585Z,80.96
2022-09-17T23:36:36.214Z,81.05
2022-09-17T23:39:05.059Z,80.77
2022-09-17T23:41:35.330Z,80.59
2022-09-17T23:44:09.432Z,80.32
2022-09-17T23:46:40.010Z,80.21
2022-09-17T23:49:08.142Z,79.83
2022-09-17T23:51:37.263Z,79.63
2022-09-17T23:54:08.024Z,79.57
2022-09-17T23:56:36.727Z,79.61
2022-09-17T23:59:05.653Z,79.11
